Home > Products > Valid Products > MTR

000
SAUS46 KSTO 082053
MTRBLU
METAR KBLU 082052Z AUTO 09005KT 10SM CLR 19/M09 A3041 RMK AO2 SLP237
T01891094 58005





000
SAUS46 KSTO 081953
MTRBLU
METAR KBLU 081952Z AUTO 07005KT 10SM CLR 18/M09 A3043 RMK AO2 SLP244
T01831089





000
SAUS46 KSTO 081953
MTRBLU
METAR KBLU 081952Z AUTO 07005KT 10SM CLR 18/M09 A3043 RMK AO2 SLP244
T01831089





000
SAUS46 KSTO 081854
MTRBLU
METAR KBLU 081852Z AUTO 08009G15KT 10SM CLR 17/M09 A3044 RMK AO2
SLP247 T01671089





000
SAUS46 KSTO 081754
MTRBLU
METAR KBLU 081752Z AUTO 07007G14KT 040V110 10SM CLR 16/M08 A3043 RMK
AO2 SLP252 T01561083 10161 20089 51016





000
SAUS46 KSTO 081653
MTRBLU
METAR KBLU 081652Z AUTO VRB06KT 10SM CLR 14/M09 A3042 RMK AO2 SLP249
T01441089





000
SAUS46 KSTO 081554
MTRBLU
METAR KBLU 081552Z AUTO 08007G19KT 060V120 10SM CLR 13/M09 A3040 RMK
AO2 SLP247 T01281094





000
SAUS46 KSTO 081453
MTRBLU
METAR KBLU 081452Z AUTO 06007G17KT 10SM CLR 12/M09 A3038 RMK AO2
SLP245 T01221094 56011





000
SAUS46 KSTO 081353
MTRBLU
METAR KBLU 081352Z AUTO 04009G23KT 10SM CLR 12/M08 A3038 RMK AO2
SLP245 T01171078





000
SAUS46 KSTO 081253
MTRBLU
METAR KBLU 081252Z AUTO 07007KT 050V110 10SM CLR 09/M06 A3041 RMK
AO2 SLP260 T00941056





000
SAUS46 KSTO 081253
MTRBLU
METAR KBLU 081252Z AUTO 07007KT 050V110 10SM CLR 09/M06 A3041 RMK
AO2 SLP260 T00941056





000
SAUS46 KSTO 081153
MTRBLU
METAR KBLU 081152Z AUTO VRB05KT 10SM CLR 10/M06 A3042 RMK AO2 SLP255
T01001056 10133 20094 54000





000
SAUS46 KSTO 081153
MTRBLU
METAR KBLU 081152Z AUTO VRB05KT 10SM CLR 10/M06 A3042 RMK AO2 SLP255
T01001056 10133 20094 54000





000
SAUS46 KSTO 081053
MTRBLU
METAR KBLU 081052Z AUTO VRB05G20KT 10SM CLR 10/M05 A3042 RMK AO2
SLP252 T01001050





000
SAUS46 KSTO 081053
MTRBLU
METAR KBLU 081052Z AUTO VRB05G20KT 10SM CLR 10/M05 A3042 RMK AO2
SLP252 T01001050





000
SAUS46 KSTO 080953
MTRBLU
METAR KBLU 080952Z AUTO VRB06G19KT 10SM CLR 11/M06 A3042 RMK AO2
SLP246 T01111056





000
SAUS46 KSTO 080853
MTRBLU
METAR KBLU 080852Z AUTO VRB04KT 10SM CLR 11/M06 A3042 RMK AO2 SLP249
T01061056 53004





000
SAUS46 KSTO 080853
MTRBLU
METAR KBLU 080852Z AUTO VRB04KT 10SM CLR 11/M06 A3042 RMK AO2 SLP249
T01061056 53004





000
SAUS46 KSTO 080753
MTRBLU
METAR KBLU 080752Z AUTO 08008G22KT 350V130 10SM CLR 12/M06 A3041 RMK
AO2 PK WND 08031/0656 SLP245 T01171061 401560072





000
SAUS46 KSTO 080653
MTRBLU
METAR KBLU 080652Z AUTO 07011G22KT 020V100 10SM CLR 12/M06 A3041 RMK
AO2 PK WND 05032/0621 SLP240 T01221061





000
SAUS46 KSTO 080553
MTRBLU
METAR KBLU 080552Z AUTO 08011G20KT 10SM CLR 11/M06 A3040 RMK AO2 PK
WND 09028/0519 SLP247 T01111061 10133 20094 53012





000
SAUS46 KSTO 080553
MTRBLU
METAR KBLU 080552Z AUTO 08011G20KT 10SM CLR 11/M06 A3040 RMK AO2 PK
WND 09028/0519 SLP247 T01111061 10133 20094 53012





000
SAUS46 KSTO 080453
MTRBLU
METAR KBLU 080452Z AUTO 08011G22KT 10SM CLR 12/M06 A3039 RMK AO2 PK
WND 10026/0424 SLP244 T01171061





000
SAUS46 KSTO 080453
MTRBLU
METAR KBLU 080452Z AUTO 08011G22KT 10SM CLR 12/M06 A3039 RMK AO2 PK
WND 10026/0424 SLP244 T01171061





000
SAUS46 KSTO 080353
MTRBLU
METAR KBLU 080352Z AUTO 09008G20KT 10SM CLR 11/M06 A3037 RMK AO2
SLP242 T01111061





000
SAUS46 KSTO 080253
MTRBLU
METAR KBLU 080252Z AUTO 08008G18KT 020V110 10SM CLR 10/M06 A3036 RMK
AO2 PK WND 07035/0156 SLP244 T01001056 55006





000
SAUS46 KSTO 080153
MTRBLU
METAR KBLU 080152Z AUTO 08014G34KT 030V110 10SM CLR 11/M05 A3036 RMK
AO2 PK WND 08034/0149 SLP243 T01061050





000
SAUS46 KSTO 080053
MTRBLU
METAR KBLU 080052Z AUTO 08007KT 040V180 10SM CLR 12/M04 A3038 RMK
AO2 SLP248 T01171044





000
SAUS46 KSTO 080053
MTRBLU
METAR KBLU 080052Z AUTO 08007KT 040V180 10SM CLR 12/M04 A3038 RMK
AO2 SLP248 T01171044





000
SAUS46 KSTO 072353
MTRBLU
METAR KBLU 072352Z AUTO 08009G19KT 030V130 10SM CLR 13/M05 A3038 RMK
AO2 SLP245 T01331050 10156 20128 56000





000
SAUS46 KSTO 072253
MTRBLU
METAR KBLU 072252Z AUTO 09010G20KT 060V120 10SM CLR 14/M05 A3038 RMK
AO2 SLP245 T01441050





000
SAUS46 KSTO 072253
MTRBLU
METAR KBLU 072252Z AUTO 09010G20KT 060V120 10SM CLR 14/M05 A3038 RMK
AO2 SLP245 T01441050





000
SAUS46 KSTO 072153
MTRBLU
METAR KBLU 072152Z AUTO 09007G17KT 050V140 10SM CLR 15/M05 A3038 RMK
AO2 SLP239 T01501050





000
SAUS46 KSTO 072053
MTRBLU
METAR KBLU 072052Z AUTO 09009G20KT 060V130 10SM CLR 15/M06 A3038 RMK
AO2 SLP243 T01501056 58004





000
SAUS46 KSTO 072034
MTRBLU
SPECI KBLU 072033Z AUTO 09009G20KT 030V150 10SM CLR 14/M06 A3039 RMK
AO2 T01441056





000
SAUS46 KSTO 072020
MTRBLU
SPECI KBLU 072019Z AUTO 08009G21KT 040V110 1 3/4SM HZ CLR 14/M06
A3040 RMK AO2 T01441056





000
SAUS46 KSTO 071953
MTRBLU
METAR KBLU 071952Z AUTO 07009G19KT 010V110 10SM CLR 14/M05 A3041 RMK
AO2 SLP253 T01441050





000
SAUS46 KSTO 071853
MTRBLU
METAR KBLU 071852Z AUTO 05008G17KT 350V080 10SM CLR 15/M04 A3041 RMK
AO2 PK WND 05026/1759 SLP254 T01501039





000
SAUS46 KSTO 071853
MTRBLU
METAR KBLU 071852Z AUTO 05008G17KT 350V080 10SM CLR 15/M04 A3041 RMK
AO2 PK WND 05026/1759 SLP254 T01501039





000
SAUS46 KSTO 071753
MTRBLU
METAR KBLU 071752Z AUTO 06010G26KT 030V090 10SM CLR 13/M05 A3040 RMK
AO2 PK WND 05026/1750 SLP250 T01281050 10133 20089 51004





000
SAUS46 KSTO 071753
MTRBLU
METAR KBLU 071752Z AUTO 06010G26KT 030V090 10SM CLR 13/M05 A3040 RMK
AO2 PK WND 05026/1750 SLP250 T01281050 10133 20089 51004





000
SAUS46 KSTO 071653
MTRBLU
METAR KBLU 071652Z AUTO 06014G25KT 10SM CLR 11/M07 A3039 RMK AO2 PK
WND 04027/1627 SLP254 T01111067





000
SAUS46 KSTO 071553
MTRBLU
METAR KBLU 071552Z AUTO 05014G26KT 10SM CLR 11/M08 A3040 RMK AO2 PK
WND 05028/1517 SLP256 T01061078





000
SAUS46 KSTO 071453
MTRBLU
METAR KBLU 071452Z AUTO 06010G22KT 020V090 10SM CLR 10/M08 A3038 RMK
AO2 SLP251 T01001083 55001





000
SAUS46 KSTO 071453
MTRBLU
METAR KBLU 071452Z AUTO 06010G22KT 020V090 10SM CLR 10/M08 A3038 RMK
AO2 SLP251 T01001083 55001





000
SAUS46 KSTO 071353
MTRBLU
METAR KBLU 071352Z AUTO 06008G17KT 020V100 10SM CLR 09/M09 A3037 RMK
AO2 SLP253 T00941089





000
SAUS46 KSTO 071253
MTRBLU
METAR KBLU 071252Z AUTO 05009G18KT 020V080 10SM CLR 09/M09 A3038 RMK
AO2 SLP252 T00891089





000
SAUS46 KSTO 071253
MTRBLU
METAR KBLU 071252Z AUTO 05009G18KT 020V080 10SM CLR 09/M09 A3038 RMK
AO2 SLP252 T00891089





000
SAUS46 KSTO 071153
MTRBLU
METAR KBLU 071152Z AUTO 06010G17KT 10SM CLR 09/M08 A3038 RMK AO2
SLP249 T00891083 10094 20072 58006





000
SAUS46 KSTO 071053
MTRBLU
METAR KBLU 071052Z AUTO 05006KT 10SM CLR 08/M08 A3040 RMK AO2 SLP257
T00781078





000
SAUS46 KSTO 070953
MTRBLU
METAR KBLU 070952Z AUTO 04009G15KT 10SM CLR 09/M07 A3040 RMK AO2
SLP258 T00891072





000
SAUS46 KSTO 070853
MTRBLU
METAR KBLU 070852Z AUTO 06006KT 10SM CLR 08/M07 A3040 RMK AO2 SLP259
T00831072 58003





000
SAUS46 KSTO 070853
MTRBLU
METAR KBLU 070852Z AUTO 06006KT 10SM CLR 08/M07 A3040 RMK AO2 SLP259
T00831072 58003





000
SAUS46 KSTO 070753
MTRBLU
METAR KBLU 070752Z AUTO 06005KT 10SM CLR 08/M07 A3041 RMK AO2 SLP261
T00831072 401220056





000
SAUS46 KSTO 070654
MTRBLU
METAR KBLU 070652Z AUTO 06005KT 10SM CLR 08/M06 A3041 RMK AO2 SLP262
T00831061





000
SAUS46 KSTO 070654
MTRBLU
METAR KBLU 070652Z AUTO 06005KT 10SM CLR 08/M06 A3041 RMK AO2 SLP262
T00831061





000
SAUS46 KSTO 070554
MTRBLU
METAR KBLU 070552Z AUTO VRB04KT 10SM CLR 09/M06 A3041 RMK AO2 SLP263
T00891061 10117 20072 53001





000
SAUS46 KSTO 070554
MTRBLU
METAR KBLU 070552Z AUTO VRB04KT 10SM CLR 09/M06 A3041 RMK AO2 SLP263
T00891061 10117 20072 53001





000
SAUS46 KSTO 070453
MTRBLU
METAR KBLU 070452Z AUTO VRB06KT 10SM CLR 08/M06 A3041 RMK AO2 SLP266
T00831061





000
SAUS46 KSTO 070453
MTRBLU
METAR KBLU 070452Z AUTO VRB06KT 10SM CLR 08/M06 A3041 RMK AO2 SLP266
T00831061





000
SAUS46 KSTO 070353
MTRBLU
METAR KBLU 070352Z AUTO 05005KT 10SM CLR 09/M06 A3041 RMK AO2 SLP266
T00941056





000
SAUS46 KSTO 070353
MTRBLU
METAR KBLU 070352Z AUTO 05005KT 10SM CLR 09/M06 A3041 RMK AO2 SLP266
T00941056





000
SAUS46 KSTO 070253
MTRBLU
METAR KBLU 070252Z AUTO 36005KT 10SM CLR 10/M04 A3041 RMK AO2 SLP269
T01001039 53003





000
SAUS46 KSTO 070253
MTRBLU
METAR KBLU 070252Z AUTO 36005KT 10SM CLR 10/M04 A3041 RMK AO2 SLP269
T01001039 53003





000
SAUS46 KSTO 070154
MTRBLU
METAR KBLU 070152Z AUTO 01003KT 10SM CLR 08/M01 A3039 RMK AO2 SLP269
T00831011





000
SAUS46 KSTO 070154
MTRBLU
METAR KBLU 070152Z AUTO 01003KT 10SM CLR 08/M01 A3039 RMK AO2 SLP269
T00831011





000
SAUS46 KSTO 070054
MTRBLU
METAR KBLU 070052Z AUTO 28004KT 10SM CLR 11/M01 A3040 RMK AO2 SLP262
T01061011





000
SAUS46 KSTO 070054
MTRBLU
METAR KBLU 070052Z AUTO 28004KT 10SM CLR 11/M01 A3040 RMK AO2 SLP262
T01061011





000
SAUS46 KSTO 062353
MTRBLU
METAR KBLU 062352Z AUTO VRB03KT 10SM CLR 12/M04 A3040 RMK AO2 SLP258
T01171039 10122 20106 56009





000
SAUS46 KSTO 062353
MTRBLU
METAR KBLU 062352Z AUTO VRB03KT 10SM CLR 12/M04 A3040 RMK AO2 SLP258
T01171039 10122 20106 56009





000
SAUS46 KSTO 062254
MTRBLU
METAR KBLU 062252Z AUTO 28004KT 10SM CLR 12/M05 A3041 RMK AO2 SLP260
T01221050





000
SAUS46 KSTO 062154
MTRBLU
METAR KBLU 062152Z AUTO 26004KT 10SM CLR 11/M06 A3041 RMK AO2 SLP264
T01111061





000
SAUS46 KSTO 062154
MTRBLU
METAR KBLU 062152Z AUTO 26004KT 10SM CLR 11/M06 A3041 RMK AO2 SLP264
T01111061





000
SAUS46 KSTO 062053
MTRBLU
METAR KBLU 062052Z AUTO 26005KT 10SM CLR 12/M08 A3043 RMK AO2 SLP274
T01171078 58012





000
SAUS46 KSTO 061953
MTRBLU
METAR KBLU 061952Z AUTO 28004KT 10SM CLR 12/M11 A3046 RMK AO2 SLP284
T01171111





000
SAUS46 KSTO 061853
MTRBLU
METAR KBLU 061852Z AUTO 33003KT 10SM CLR 12/M12 A3048 RMK AO2 SLP287
T01171122





000
SAUS46 KSTO 061853
MTRBLU
METAR KBLU 061852Z AUTO 33003KT 10SM CLR 12/M12 A3048 RMK AO2 SLP287
T01171122





000
SAUS46 KSTO 061754
MTRBLU
METAR KBLU 061752Z AUTO 00000KT 10SM CLR 11/M13 A3047 RMK AO2 SLP290
T01061128 10106 20061 51007





000
SAUS46 KSTO 061754
MTRBLU
METAR KBLU 061752Z AUTO 00000KT 10SM CLR 11/M13 A3047 RMK AO2 SLP290
T01061128 10106 20061 51007





000
SAUS46 KSTO 061654
MTRBLU
METAR KBLU 061652Z AUTO 00000KT 10SM CLR 09/M12 A3047 RMK AO2 SLP289
T00941122





000
SAUS46 KSTO 061654
MTRBLU
METAR KBLU 061652Z AUTO 00000KT 10SM CLR 09/M12 A3047 RMK AO2 SLP289
T00941122





000
SAUS46 KSTO 061553
MTRBLU
METAR KBLU 061552Z AUTO 00000KT 10SM CLR 08/M14 A3046 RMK AO2 SLP293
T00781144





000
SAUS46 KSTO 061453
MTRBLU
METAR KBLU 061452Z AUTO 09003KT 10SM CLR 07/M14 A3045 RMK AO2 SLP290
T00671139 53003





000
SAUS46 KSTO 061354
MTRBLU
METAR KBLU 061352Z AUTO 09003KT 10SM CLR 06/M13 A3044 RMK AO2 SLP287
T00611133





000
SAUS46 KSTO 061253
MTRBLU
METAR KBLU 061252Z AUTO 00000KT 10SM OVC075 07/M13 A3044 RMK AO2
SLP278 T00721133





000
SAUS46 KSTO 061153
MTRBLU
METAR KBLU 061152Z AUTO 15003KT 10SM CLR 08/M14 A3044 RMK AO2 SLP278
T00781139 10083 20056 55004





000
SAUS46 KSTO 061153
MTRBLU
METAR KBLU 061152Z AUTO 15003KT 10SM CLR 08/M14 A3044 RMK AO2 SLP278
T00781139 10083 20056 55004





000
SAUS46 KSTO 061053
MTRBLU
METAR KBLU 061052Z AUTO 10003KT 10SM FEW100 07/M14 A3044 RMK AO2
SLP278 T00721139





000
SAUS46 KSTO 061053
MTRBLU
METAR KBLU 061052Z AUTO 10003KT 10SM FEW100 07/M14 A3044 RMK AO2
SLP278 T00721139





000
SAUS46 KSTO 060953
MTRBLU
METAR KBLU 060952Z AUTO 11003KT 10SM SCT110 07/M12 A3044 RMK AO2
SLP279 T00721122





000
SAUS46 KSTO 060853
MTRBLU
METAR KBLU 060852Z AUTO 09004KT 10SM CLR 06/M07 A3045 RMK AO2 SLP286
T00611072 58002





000
SAUS46 KSTO 060853
MTRBLU
METAR KBLU 060852Z AUTO 09004KT 10SM CLR 06/M07 A3045 RMK AO2 SLP286
T00611072 58002





000
SAUS46 KSTO 060753
MTRBLU
METAR KBLU 060752Z AUTO 10003KT 10SM CLR 06/M04 A3047 RMK AO2 SLP292
T00611044 400940033





000
SAUS46 KSTO 060654
MTRBLU
METAR KBLU 060652Z AUTO 00000KT 10SM CLR 07/M04 A3047 RMK AO2 SLP293
T00671044





000
SAUS46 KSTO 060654
MTRBLU
METAR KBLU 060652Z AUTO 00000KT 10SM CLR 07/M04 A3047 RMK AO2 SLP293
T00671044





000
SAUS46 KSTO 060554
MTRBLU
METAR KBLU 060552Z AUTO 00000KT 10SM CLR 06/M04 A3046 RMK AO2 SLP292
T00611044 10089 20061 53008





000
SAUS46 KSTO 060554
MTRBLU
METAR KBLU 060552Z AUTO 00000KT 10SM CLR 06/M04 A3046 RMK AO2 SLP292
T00611044 10089 20061 53008





000
SAUS46 KSTO 060453
MTRBLU
METAR KBLU 060452Z AUTO 00000KT 10SM CLR 07/M04 A3045 RMK AO2 SLP287
T00671044





000
SAUS46 KSTO 060353
MTRBLU
METAR KBLU 060352Z AUTO 00000KT 10SM CLR 07/M04 A3044 RMK AO2 SLP286
T00671039





000
SAUS46 KSTO 060253
MTRBLU
METAR KBLU 060252Z AUTO 08003KT 10SM CLR 06/M03 A3043 RMK AO2 SLP287
T00611033 52002





000
SAUS46 KSTO 060253
MTRBLU
METAR KBLU 060252Z AUTO 08003KT 10SM CLR 06/M03 A3043 RMK AO2 SLP287
T00611033 52002





000
SAUS46 KSTO 060153
MTRBLU
METAR KBLU 060152Z AUTO 00000KT 10SM CLR 07/M02 A3043 RMK AO2 SLP286
T00671022





000
SAUS46 KSTO 060153
MTRBLU
METAR KBLU 060152Z AUTO 00000KT 10SM CLR 07/M02 A3043 RMK AO2 SLP286
T00671022





000
SAUS46 KSTO 060054
MTRBLU
METAR KBLU 060052Z AUTO 18003KT 10SM CLR 09/M06 A3043 RMK AO2 SLP283
T00891056





000
SAUS46 KSTO 060054
MTRBLU
METAR KBLU 060052Z AUTO 18003KT 10SM CLR 09/M06 A3043 RMK AO2 SLP283
T00891056





000
SAUS46 KSTO 052353
MTRBLU
METAR KBLU 052352Z AUTO 18005KT 10SM CLR 09/M04 A3043 RMK AO2 SLP280
T00891044 10094 20083 56008





000
SAUS46 KSTO 052353
MTRBLU
METAR KBLU 052352Z AUTO 18005KT 10SM CLR 09/M04 A3043 RMK AO2 SLP280
T00891044 10094 20083 56008





000
SAUS46 KSTO 052254
MTRBLU
METAR KBLU 052252Z AUTO 17008KT 10SM CLR 09/M08 A3044 RMK AO2 SLP285
T00941083





000
SAUS46 KSTO 052254
MTRBLU
METAR KBLU 052252Z AUTO 17008KT 10SM CLR 09/M08 A3044 RMK AO2 SLP285
T00941083





000
SAUS46 KSTO 052153
MTRBLU
METAR KBLU 052152Z AUTO 18008KT 10SM CLR 09/M06 A3044 RMK AO2 SLP287
T00891056





000
SAUS46 KSTO 052153
MTRBLU
METAR KBLU 052152Z AUTO 18008KT 10SM CLR 09/M06 A3044 RMK AO2 SLP287
T00891056





000
SAUS46 KSTO 052142
MTRBLU
SPECI KBLU 052141Z AUTO VRB05KT 10SM CLR 09/M07 A3044 RMK AO2
T00941067





000
SAUS46 KSTO 052142
MTRBLU
SPECI KBLU 052141Z AUTO VRB05KT 10SM CLR 09/M07 A3044 RMK AO2
T00941067





000
SAUS46 KSTO 052128
MTRBLU
SPECI KBLU 052127Z AUTO 15006KT 1 3/4SM HZ CLR 09/M07 A3045 RMK AO2
T00941072





    US Dept of Commerce
    National Oceanic and Atmospheric Administration
    National Weather Service
    1325 East West Highway
    Silver Spring, MD 20910
    Page Author: NWS Internet Services Team
Disclaimer
Information Quality
Credits
Glossary
Privacy Policy
Freedom of Information Act (FOIA)
About Us
Career Opportunities